Lake Harmony, Pennsylvania
Current Conditions -  °F | °C
As of 7:03 AM on Monday 22 Dec 2014 (Local Time) from KMPO Reporting Station
Haze Haze  
Wind Chill: 20°   Ceiling: 200
Heat Index: 27°   Visibility: 1.2mi
Dew Point: 25°   Wind: 6mph
Humidity: 92%   Direction: 100°E
Pressure: 30.22"   Gusts: NA
Location:  41.06°N, 75.59°W
Report Text: KMPO 221203Z AUTO 10005KT 1 1/4SM BR OVC002 M03/M04 A3022 RMK AO2 T10281039
Loading
Personal Weather Stations






























Interactive Weather Map New forecast layout! Learn more

10-Day Weather Forecast

Advertisements
Track Severe Weather on mobile